sensor_id;sensor_type;location;lat;lon;timestamp;pressure;altitude;pressure_sealevel;temperature;humidity
53689;BME280;39583;54.682;30.662;2022-09-17T09:06:03;98001.94;;;15.67;57.43
53689;BME280;39583;54.682;30.662;2022-09-17T09:08:40;98007.91;;;15.92;57.38
53689;BME280;39583;54.682;30.662;2022-09-17T09:11:14;97990.38;;;16.04;56.72
53689;BME280;39583;54.682;30.662;2022-09-17T09:13:58;97993.91;;;16.23;56.34
53689;BME280;39583;54.682;30.662;2022-09-17T09:16:30;97981.59;;;16.49;56.79
53689;BME280;39583;54.682;30.662;2022-09-17T09:19:25;97995.94;;;16.74;55.92
53689;BME280;39583;54.682;30.662;2022-09-17T09:22:11;97985.06;;;16.93;55.88
53689;BME280;39583;54.682;30.662;2022-09-17T09:27:46;97977.38;;;17.27;55.03
53689;BME280;39583;54.682;30.662;2022-09-17T09:30:15;97987.41;;;17.59;54.53
53689;BME280;39583;54.682;30.662;2022-09-17T09:35:30;97987.31;;;18.55;52.94
53689;BME280;39583;54.682;30.662;2022-09-17T09:38:09;97970.66;;;18.93;52.13
53689;BME280;39583;54.682;30.662;2022-09-17T09:40:57;97972.69;;;18.65;49.96
53689;BME280;39583;54.682;30.662;2022-09-17T09:43:44;97971.84;;;18.78;49.92
53689;BME280;39583;54.682;30.662;2022-09-17T09:46:32;97968.78;;;18.80;49.13
53689;BME280;39583;54.682;30.662;2022-09-17T09:57:21;97984.41;;;18.66;47.96
53689;BME280;39583;54.682;30.662;2022-09-17T10:00:30;97982.16;;;18.68;48.22
53689;BME280;39583;54.682;30.662;2022-09-17T10:03:03;97977.63;;;18.27;47.41
53689;BME280;39583;54.682;30.662;2022-09-17T10:05:34;97986.03;;;17.76;47.65
53689;BME280;39583;54.682;30.662;2022-09-17T10:08:13;97988.28;;;17.55;47.63
53689;BME280;39583;54.682;30.662;2022-09-17T10:13:39;97992.03;;;17.59;47.88
53689;BME280;39583;54.682;30.662;2022-09-17T10:16:15;97998.56;;;17.44;47.91
53689;BME280;39583;54.682;30.662;2022-09-17T10:18:43;98003.28;;;17.38;47.94
53689;BME280;39583;54.682;30.662;2022-09-17T10:21:30;98007.50;;;17.31;47.61
53689;BME280;39583;54.682;30.662;2022-09-17T10:23:57;98011.03;;;17.31;47.73
53689;BME280;39583;54.682;30.662;2022-09-17T10:26:33;98009.72;;;17.29;47.38
53689;BME280;39583;54.682;30.662;2022-09-17T10:29:26;98014.16;;;17.25;47.80
53689;BME280;39583;54.682;30.662;2022-09-17T10:31:54;98018.44;;;17.12;47.70
53689;BME280;39583;54.682;30.662;2022-09-17T10:34:32;98020.91;;;16.95;47.67
53689;BME280;39583;54.682;30.662;2022-09-17T10:36:58;98009.44;;;16.79;48.09
53689;BME280;39583;54.682;30.662;2022-09-17T10:39:34;98026.03;;;16.77;48.40
53689;BME280;39583;54.682;30.662;2022-09-17T10:42:14;98034.09;;;16.64;48.00
53689;BME280;39583;54.682;30.662;2022-09-17T10:44:58;98028.66;;;16.64;47.64
53689;BME280;39583;54.682;30.662;2022-09-17T10:47:36;98019.91;;;16.72;47.82
53689;BME280;39583;54.682;30.662;2022-09-17T10:50:20;98036.47;;;16.89;47.49
53689;BME280;39583;54.682;30.662;2022-09-17T10:52:53;98039.75;;;17.05;48.02
53689;BME280;39583;54.682;30.662;2022-09-17T10:55:32;98038.19;;;17.18;47.35
53689;BME280;39583;54.682;30.662;2022-09-17T11:09:26;98054.72;;;16.70;48.02
53689;BME280;39583;54.682;30.662;2022-09-17T11:18:11;98045.69;;;16.93;47.86
53689;BME280;39583;54.682;30.662;2022-09-17T11:21:07;98046.75;;;16.92;47.75
53689;BME280;39583;54.682;30.662;2022-09-17T11:32:05;98021.06;;;17.50;47.52
53689;BME280;39583;54.682;30.662;2022-09-17T11:40:46;98029.25;;;17.63;47.63
53689;BME280;39583;54.682;30.662;2022-09-17T11:43:27;98029.59;;;17.43;47.20
53689;BME280;39583;54.682;30.662;2022-09-17T11:46:06;98037.19;;;17.46;47.97
53689;BME280;39583;54.682;30.662;2022-09-17T11:54:06;98043.53;;;17.55;46.36
53689;BME280;39583;54.682;30.662;2022-09-17T11:56:43;98046.34;;;17.50;46.54
53689;BME280;39583;54.682;30.662;2022-09-17T12:01:55;98048.41;;;17.58;46.98
53689;BME280;39583;54.682;30.662;2022-09-17T12:07:40;98051.38;;;17.89;46.65
53689;BME280;39583;54.682;30.662;2022-09-17T12:10:34;98053.09;;;17.99;46.50
53689;BME280;39583;54.682;30.662;2022-09-17T12:13:27;98059.13;;;17.96;46.58
53689;BME280;39583;54.682;30.662;2022-09-17T12:19:07;98068.66;;;17.66;46.49
53689;BME280;39583;54.682;30.662;2022-09-17T12:21:44;98070.34;;;17.48;46.93
53689;BME280;39583;54.682;30.662;2022-09-17T12:33:05;98062.94;;;17.35;47.28
53689;BME280;39583;54.682;30.662;2022-09-17T12:49:35;98040.72;;;18.70;44.82
53689;BME280;39583;54.682;30.662;2022-09-17T13:00:41;98045.94;;;18.17;45.11
53689;BME280;39583;54.682;30.662;2022-09-17T13:03:34;98045.00;;;18.08;45.16
53689;BME280;39583;54.682;30.662;2022-09-17T13:09:11;98037.22;;;18.42;45.09
53689;BME280;39583;54.682;30.662;2022-09-17T13:17:45;98039.19;;;18.78;44.37
53689;BME280;39583;54.682;30.662;2022-09-17T13:20:26;98039.41;;;18.68;44.50
53689;BME280;39583;54.682;30.662;2022-09-17T13:22:57;98044.88;;;18.68;44.57
53689;BME280;39583;54.682;30.662;2022-09-17T13:25:24;98050.19;;;18.59;44.43
53689;BME280;39583;54.682;30.662;2022-09-17T13:28:06;98061.75;;;18.42;44.52
53689;BME280;39583;54.682;30.662;2022-09-17T13:33:50;98056.31;;;18.01;44.70
53689;BME280;39583;54.682;30.662;2022-09-17T13:36:37;98057.13;;;17.88;44.90
53689;BME280;39583;54.682;30.662;2022-09-17T13:39:06;98063.56;;;17.92;44.82
53689;BME280;39583;54.682;30.662;2022-09-17T13:41:38;98048.78;;;17.98;44.10
53689;BME280;39583;54.682;30.662;2022-09-17T13:44:08;98056.09;;;17.84;43.53
53689;BME280;39583;54.682;30.662;2022-09-17T13:46:36;98056.09;;;17.70;44.48
53689;BME280;39583;54.682;30.662;2022-09-17T13:49:14;98043.44;;;17.47;44.89
53689;BME280;39583;54.682;30.662;2022-09-17T13:51:43;98061.44;;;17.43;45.20
53689;BME280;39583;54.682;30.662;2022-09-17T13:54:11;98051.75;;;17.36;45.45
53689;BME280;39583;54.682;30.662;2022-09-17T13:56:45;98067.94;;;17.28;45.82
53689;BME280;39583;54.682;30.662;2022-09-17T13:59:20;98071.97;;;17.30;45.86
53689;BME280;39583;54.682;30.662;2022-09-17T14:01:57;98067.66;;;17.29;45.80
53689;BME280;39583;54.682;30.662;2022-09-17T14:04:44;98074.13;;;17.33;46.54
53689;BME280;39583;54.682;30.662;2022-09-17T14:09:55;98076.09;;;17.28;46.67
53689;BME280;39583;54.682;30.662;2022-09-17T14:15:53;98088.06;;;16.94;47.12
53689;BME280;39583;54.682;30.662;2022-09-17T14:18:32;98088.00;;;16.80;47.32
53689;BME280;39583;54.682;30.662;2022-09-17T14:23:45;98088.13;;;16.70;47.64
53689;BME280;39583;54.682;30.662;2022-09-17T14:26:19;98090.56;;;16.72;47.75
53689;BME280;39583;54.682;30.662;2022-09-17T14:29:01;98086.13;;;16.76;47.72
53689;BME280;39583;54.682;30.662;2022-09-17T14:31:33;98094.81;;;16.78;47.92
53689;BME280;39583;54.682;30.662;2022-09-17T14:34:04;98083.72;;;16.74;48.02
53689;BME280;39583;54.682;30.662;2022-09-17T14:36:35;98091.88;;;16.74;48.07
53689;BME280;39583;54.682;30.662;2022-09-17T14:39:04;98095.41;;;16.75;48.58
53689;BME280;39583;54.682;30.662;2022-09-17T14:41:39;98103.03;;;16.73;48.50
53689;BME280;39583;54.682;30.662;2022-09-17T14:44:21;98107.47;;;16.69;48.91
53689;BME280;39583;54.682;30.662;2022-09-17T14:46:55;98105.75;;;16.73;48.94
53689;BME280;39583;54.682;30.662;2022-09-17T14:49:29;98095.63;;;16.78;48.99
53689;BME280;39583;54.682;30.662;2022-09-17T14:51:58;98094.50;;;16.79;49.13
53689;BME280;39583;54.682;30.662;2022-09-17T14:54:26;98094.59;;;16.74;49.35
53689;BME280;39583;54.682;30.662;2022-09-17T14:57:00;98101.22;;;16.63;49.19
53689;BME280;39583;54.682;30.662;2022-09-17T15:04:57;98094.22;;;16.38;50.12
53689;BME280;39583;54.682;30.662;2022-09-17T15:07:24;98094.81;;;16.35;50.04
53689;BME280;39583;54.682;30.662;2022-09-17T15:09:51;98081.63;;;16.23;50.31
53689;BME280;39583;54.682;30.662;2022-09-17T15:12:27;98086.66;;;16.11;50.57
53689;BME280;39583;54.682;30.662;2022-09-17T15:14:55;98095.50;;;15.98;50.56
53689;BME280;39583;54.682;30.662;2022-09-17T15:17:22;98083.00;;;15.73;51.00
53689;BME280;39583;54.682;30.662;2022-09-17T15:19:52;98088.00;;;15.61;51.45
53689;BME280;39583;54.682;30.662;2022-09-17T15:22:28;98092.72;;;15.45;51.94
53689;BME280;39583;54.682;30.662;2022-09-17T15:25:04;98098.78;;;15.37;52.16
53689;BME280;39583;54.682;30.662;2022-09-17T15:27:34;98107.72;;;15.38;52.23
53689;BME280;39583;54.682;30.662;2022-09-17T15:30:12;98106.34;;;15.40;52.54
53689;BME280;39583;54.682;30.662;2022-09-17T15:32:40;98106.34;;;15.40;52.53
53689;BME280;39583;54.682;30.662;2022-09-17T15:37:49;98107.75;;;15.32;52.71
53689;BME280;39583;54.682;30.662;2022-09-17T15:40:38;98113.00;;;15.24;52.84
53689;BME280;39583;54.682;30.662;2022-09-17T15:43:29;98106.81;;;15.13;52.75
53689;BME280;39583;54.682;30.662;2022-09-17T15:45:57;98112.59;;;15.01;53.15
53689;BME280;39583;54.682;30.662;2022-09-17T15:48:43;98116.75;;;14.89;53.16
53689;BME280;39583;54.682;30.662;2022-09-17T15:51:27;98118.69;;;14.78;53.71
53689;BME280;39583;54.682;30.662;2022-09-17T15:53:57;98126.59;;;14.69;53.75
53689;BME280;39583;54.682;30.662;2022-09-17T15:59:01;98125.31;;;14.57;54.08
53689;BME280;39583;54.682;30.662;2022-09-17T16:09:00;98144.53;;;14.60;54.58
53689;BME280;39583;54.682;30.662;2022-09-17T16:11:29;98143.97;;;14.58;54.68
53689;BME280;39583;54.682;30.662;2022-09-17T16:13:58;98136.16;;;14.52;54.83
53689;BME280;39583;54.682;30.662;2022-09-17T16:16:35;98128.38;;;14.35;55.07
53689;BME280;39583;54.682;30.662;2022-09-17T16:19:03;98138.63;;;14.38;55.31
53689;BME280;39583;54.682;30.662;2022-09-17T16:21:31;98139.19;;;14.35;55.38
53689;BME280;39583;54.682;30.662;2022-09-17T16:23:58;98146.22;;;14.31;55.67
53689;BME280;39583;54.682;30.662;2022-09-17T16:26:29;98147.88;;;14.27;55.75
53689;BME280;39583;54.682;30.662;2022-09-17T16:29:03;98140.06;;;14.20;55.92
53689;BME280;39583;54.682;30.662;2022-09-17T16:31:32;98141.97;;;14.09;56.07
53689;BME280;39583;54.682;30.662;2022-09-17T16:33:58;98146.06;;;13.97;56.36
53689;BME280;39583;54.682;30.662;2022-09-17T16:36:25;98148.53;;;13.83;56.68
53689;BME280;39583;54.682;30.662;2022-09-17T16:38:52;98146.66;;;13.68;57.00
53689;BME280;39583;54.682;30.662;2022-09-17T16:41:18;98150.72;;;13.55;57.30
53689;BME280;39583;54.682;30.662;2022-09-17T16:43:44;98148.53;;;13.47;57.54
53689;BME280;39583;54.682;30.662;2022-09-17T16:46:11;98157.47;;;13.43;57.81
53689;BME280;39583;54.682;30.662;2022-09-17T16:48:37;98162.03;;;13.37;57.78
53689;BME280;39583;54.682;30.662;2022-09-17T16:51:07;98149.31;;;13.27;58.04
53689;BME280;39583;54.682;30.662;2022-09-17T16:53:34;98159.56;;;13.15;58.29
53689;BME280;39583;54.682;30.662;2022-09-17T16:56:04;98157.09;;;12.93;58.66
53689;BME280;39583;54.682;30.662;2022-09-17T16:58:33;98159.72;;;12.68;59.39
53689;BME280;39583;54.682;30.662;2022-09-17T17:01:12;98160.44;;;12.48;59.83
53689;BME280;39583;54.682;30.662;2022-09-17T17:03:39;98162.00;;;12.34;60.25
53689;BME280;39583;54.682;30.662;2022-09-17T17:06:13;98144.94;;;12.18;60.63
53689;BME280;39583;54.682;30.662;2022-09-17T17:08:40;98161.19;;;12.28;60.70
53689;BME280;39583;54.682;30.662;2022-09-17T17:11:06;98154.72;;;12.34;61.03
53689;BME280;39583;54.682;30.662;2022-09-17T17:13:32;98148.81;;;12.43;60.94
53689;BME280;39583;54.682;30.662;2022-09-17T17:16:06;98152.88;;;12.45;60.87
53689;BME280;39583;54.682;30.662;2022-09-17T17:18:33;98158.00;;;12.47;61.05
53689;BME280;39583;54.682;30.662;2022-09-17T17:21:07;98162.59;;;12.46;61.22
53689;BME280;39583;54.682;30.662;2022-09-17T17:23:34;98162.88;;;12.50;61.10
53689;BME280;39583;54.682;30.662;2022-09-17T17:26:01;98152.38;;;12.53;61.20
53689;BME280;39583;54.682;30.662;2022-09-17T17:28:32;98156.16;;;12.57;61.08
53689;BME280;39583;54.682;30.662;2022-09-17T17:31:00;98152.94;;;12.60;61.03
53689;BME280;39583;54.682;30.662;2022-09-17T17:33:26;98155.38;;;12.62;61.08
53689;BME280;39583;54.682;30.662;2022-09-17T17:35:53;98147.84;;;12.64;61.14
53689;BME280;39583;54.682;30.662;2022-09-17T17:38:20;98145.09;;;12.59;61.27
53689;BME280;39583;54.682;30.662;2022-09-17T17:40:48;98156.75;;;12.69;61.27
53689;BME280;39583;54.682;30.662;2022-09-17T17:43:14;98156.22;;;12.73;61.31
53689;BME280;39583;54.682;30.662;2022-09-17T17:45:40;98158.13;;;12.77;61.27
53689;BME280;39583;54.682;30.662;2022-09-17T17:48:06;98160.84;;;12.82;61.11
53689;BME280;39583;54.682;30.662;2022-09-17T17:50:33;98161.13;;;12.86;61.24
53689;BME280;39583;54.682;30.662;2022-09-17T17:53:02;98163.28;;;12.89;61.17
53689;BME280;39583;54.682;30.662;2022-09-17T17:55:28;98164.13;;;12.89;61.17
53689;BME280;39583;54.682;30.662;2022-09-17T17:57:55;98157.06;;;12.88;61.30
53689;BME280;39583;54.682;30.662;2022-09-17T18:00:23;98157.63;;;12.90;61.35
53689;BME280;39583;54.682;30.662;2022-09-17T18:02:50;98142.22;;;12.81;61.30
53689;BME280;39583;54.682;30.662;2022-09-17T18:05:16;98161.16;;;12.91;61.25
53689;BME280;39583;54.682;30.662;2022-09-17T18:07:42;98143.00;;;12.81;61.39
53689;BME280;39583;54.682;30.662;2022-09-17T18:10:09;98162.75;;;12.92;61.30
53689;BME280;39583;54.682;30.662;2022-09-17T18:12:35;98166.28;;;12.92;61.46
53689;BME280;39583;54.682;30.662;2022-09-17T18:15:03;98125.69;;;12.72;61.55
53689;BME280;39583;54.682;30.662;2022-09-17T18:17:32;98159.25;;;12.91;61.47
53689;BME280;39583;54.682;30.662;2022-09-17T18:20:01;98154.13;;;12.90;61.41
53689;BME280;39583;54.682;30.662;2022-09-17T18:22:29;98163.28;;;12.89;61.61
53689;BME280;39583;54.682;30.662;2022-09-17T18:24:55;98165.44;;;12.82;61.71
53689;BME280;39583;54.682;30.662;2022-09-17T18:27:23;98168.94;;;12.77;61.82
53689;BME280;39583;54.682;30.662;2022-09-17T18:29:50;98162.44;;;12.73;62.12
53689;BME280;39583;54.682;30.662;2022-09-17T18:32:17;98171.88;;;12.76;62.16
53689;BME280;39583;54.682;30.662;2022-09-17T18:34:43;98171.38;;;12.79;61.97
53689;BME280;39583;54.682;30.662;2022-09-17T18:37:10;98171.09;;;12.80;61.91
53689;BME280;39583;54.682;30.662;2022-09-17T18:39:36;98167.88;;;12.83;62.09
53689;BME280;39583;54.682;30.662;2022-09-17T18:42:03;98168.41;;;12.85;61.85
53689;BME280;39583;54.682;30.662;2022-09-17T18:44:29;98177.31;;;12.86;61.81
53689;BME280;39583;54.682;30.662;2022-09-17T18:46:56;98177.31;;;12.86;61.83
53689;BME280;39583;54.682;30.662;2022-09-17T18:49:22;98179.75;;;12.87;61.82
53689;BME280;39583;54.682;30.662;2022-09-17T18:51:48;98186.78;;;12.88;61.76
53689;BME280;39583;54.682;30.662;2022-09-17T18:54:14;98193.84;;;12.89;61.67
53689;BME280;39583;54.682;30.662;2022-09-17T18:56:41;98187.59;;;12.89;61.89
53689;BME280;39583;54.682;30.662;2022-09-17T18:59:08;98191.63;;;12.86;61.77
53689;BME280;39583;54.682;30.662;2022-09-17T19:01:36;98196.53;;;12.89;61.87
53689;BME280;39583;54.682;30.662;2022-09-17T19:04:03;98197.59;;;12.88;61.72
53689;BME280;39583;54.682;30.662;2022-09-17T19:06:32;98198.66;;;12.87;61.91
53689;BME280;39583;54.682;30.662;2022-09-17T19:09:00;98199.47;;;12.88;62.04
53689;BME280;39583;54.682;30.662;2022-09-17T19:11:26;98206.50;;;12.89;61.98
53689;BME280;39583;54.682;30.662;2022-09-17T19:13:53;98199.25;;;12.89;62.04
53689;BME280;39583;54.682;30.662;2022-09-17T19:16:22;98198.66;;;12.87;61.91
53689;BME280;39583;54.682;30.662;2022-09-17T19:18:48;98206.00;;;12.92;61.63
53689;BME280;39583;54.682;30.662;2022-09-17T19:21:17;98192.72;;;12.85;61.51
53689;BME280;39583;54.682;30.662;2022-09-17T19:23:47;98204.09;;;12.97;61.52
53689;BME280;39583;54.682;30.662;2022-09-17T19:26:20;98201.13;;;12.99;61.50
53689;BME280;39583;54.682;30.662;2022-09-17T19:28:46;98191.69;;;13.02;61.37
53689;BME280;39583;54.682;30.662;2022-09-17T19:31:14;98193.06;;;13.04;61.26
53689;BME280;39583;54.682;30.662;2022-09-17T19:33:42;98188.19;;;13.06;61.12
53689;BME280;39583;54.682;30.662;2022-09-17T19:36:13;98196.56;;;13.10;61.11
53689;BME280;39583;54.682;30.662;2022-09-17T19:38:40;98194.13;;;13.13;61.03
53689;BME280;39583;54.682;30.662;2022-09-17T19:41:10;98194.13;;;13.13;60.93
53689;BME280;39583;54.682;30.662;2022-09-17T19:43:39;98190.34;;;13.09;60.74
53689;BME280;39583;54.682;30.662;2022-09-17T19:46:10;98195.50;;;13.11;60.71
53689;BME280;39583;54.682;30.662;2022-09-17T19:48:45;98200.91;;;13.11;60.65
53689;BME280;39583;54.682;30.662;2022-09-17T19:51:15;98194.41;;;13.07;60.57
53689;BME280;39583;54.682;30.662;2022-09-17T19:53:42;98199.81;;;13.12;60.60
53689;BME280;39583;54.682;30.662;2022-09-17T19:56:17;98199.28;;;13.10;60.46
53689;BME280;39583;54.682;30.662;2022-09-17T19:58:44;98208.72;;;13.12;60.50
53689;BME280;39583;54.682;30.662;2022-09-17T20:01:11;98203.06;;;13.09;60.53
53689;BME280;39583;54.682;30.662;2022-09-17T20:03:40;98210.09;;;13.05;60.55
53689;BME280;39583;54.682;30.662;2022-09-17T20:06:09;98215.50;;;13.05;60.47
53689;BME280;39583;54.682;30.662;2022-09-17T20:08:35;98215.75;;;13.03;60.57
53689;BME280;39583;54.682;30.662;2022-09-17T20:11:06;98210.59;;;13.02;60.33
53689;BME280;39583;54.682;30.662;2022-09-17T20:13:35;98201.41;;;12.97;60.62
53689;BME280;39583;54.682;30.662;2022-09-17T20:16:03;98211.66;;;12.95;60.60
53689;BME280;39583;54.682;30.662;2022-09-17T20:18:30;98208.16;;;12.90;60.62
53689;BME280;39583;54.682;30.662;2022-09-17T20:20:56;98213.53;;;12.85;60.79
53689;BME280;39583;54.682;30.662;2022-09-17T20:23:23;98215.41;;;12.79;60.92
53689;BME280;39583;54.682;30.662;2022-09-17T20:25:52;98207.78;;;12.71;61.00
53689;BME280;39583;54.682;30.662;2022-09-17T20:28:19;98206.13;;;12.60;61.26
53689;BME280;39583;54.682;30.662;2022-09-17T20:30:45;98205.84;;;12.51;61.14
53689;BME280;39583;54.682;30.662;2022-09-17T20:33:11;98213.34;;;12.39;61.74
53689;BME280;39583;54.682;30.662;2022-09-17T20:35:39;98218.06;;;12.22;61.78
53689;BME280;39583;54.682;30.662;2022-09-17T20:38:05;98219.03;;;12.00;62.18
53689;BME280;39583;54.682;30.662;2022-09-17T20:40:31;98212.06;;;11.77;62.38
53689;BME280;39583;54.682;30.662;2022-09-17T20:42:58;98209.19;;;11.57;62.80
53689;BME280;39583;54.682;30.662;2022-09-17T20:45:24;98209.84;;;11.37;63.01
53689;BME280;39583;54.682;30.662;2022-09-17T20:47:50;98217.41;;;11.13;63.58
53689;BME280;39583;54.682;30.662;2022-09-17T20:50:16;98212.81;;;10.87;63.74
53689;BME280;39583;54.682;30.662;2022-09-17T20:52:43;98221.66;;;10.60;64.40
53689;BME280;39583;54.682;30.662;2022-09-17T20:55:09;98216.00;;;10.40;64.68
53689;BME280;39583;54.682;30.662;2022-09-17T20:57:35;98225.75;;;10.24;64.94
53689;BME280;39583;54.682;30.662;2022-09-17T21:00:01;98223.31;;;10.06;65.46
53689;BME280;39583;54.682;30.662;2022-09-17T21:02:42;98218.41;;;9.86;66.20
53689;BME280;39583;54.682;30.662;2022-09-17T21:05:15;98218.13;;;9.66;66.04
53689;BME280;39583;54.682;30.662;2022-09-17T21:07:42;98212.72;;;9.49;66.37
53689;BME280;39583;54.682;30.662;2022-09-17T21:10:08;98218.00;;;9.27;66.75
53689;BME280;39583;54.682;30.662;2022-09-17T21:12:35;98212.34;;;9.12;67.39
53689;BME280;39583;54.682;30.662;2022-09-17T21:15:01;98221.28;;;9.01;67.83
53689;BME280;39583;54.682;30.662;2022-09-17T21:17:30;98217.00;;;8.88;68.10
53689;BME280;39583;54.682;30.662;2022-09-17T21:19:56;98225.91;;;8.77;68.28
53689;BME280;39583;54.682;30.662;2022-09-17T21:22:22;98220.91;;;8.69;68.57
53689;BME280;39583;54.682;30.662;2022-09-17T21:24:48;98218.13;;;8.64;68.75
